createdAt,value
2022-08-05T00:01:27.887Z,86.56
2022-08-05T00:03:57.158Z,87.20
2022-08-05T00:06:29.508Z,87.65
2022-08-05T00:09:00.079Z,87.31
2022-08-05T00:11:30.226Z,87.62
2022-08-05T00:14:00.921Z,87.85
2022-08-05T00:16:36.497Z,88.12
2022-08-05T00:19:15.080Z,88.08
2022-08-05T00:21:42.718Z,87.50
2022-08-05T00:24:10.461Z,88.08
2022-08-05T00:26:38.272Z,88.11
2022-08-05T00:29:04.645Z,87.80
2022-08-05T00:31:54.113Z,87.75
2022-08-05T00:34:54.816Z,86.88
2022-08-05T00:37:10.450Z,87.52
2022-08-05T00:39:41.510Z,87.52
2022-08-05T00:42:11.067Z,87.78
2022-08-05T00:44:57.448Z,87.31
2022-08-05T00:47:24.039Z,87.67
2022-08-05T00:49:51.798Z,87.90
2022-08-05T00:52:28.215Z,87.31
2022-08-05T00:54:55.247Z,88.02
2022-08-05T00:57:25.139Z,87.96
2022-08-05T00:59:51.925Z,88.41
2022-08-05T01:02:18.425Z,88.60
2022-08-05T01:04:44.805Z,88.29
2022-08-05T01:07:17.993Z,88.25
2022-08-05T01:09:44.625Z,88.68
2022-08-05T01:12:18.472Z,88.66
2022-08-05T01:14:53.301Z,88.59
2022-08-05T01:17:27.720Z,88.50
2022-08-05T01:20:13.704Z,88.53
2022-08-05T01:23:23.242Z,88.79
2022-08-05T01:26:18.733Z,88.40
2022-08-05T01:29:00.591Z,88.81
2022-08-05T01:31:42.632Z,88.75
2022-08-05T01:34:44.677Z,88.12
2022-08-05T01:37:25.443Z,88.47
2022-08-05T01:39:59.200Z,88.07
2022-08-05T01:42:27.643Z,88.65
2022-08-05T01:44:56.849Z,88.73
2022-08-05T01:47:39.068Z,89.40
2022-08-05T01:50:15.255Z,89.28
2022-08-05T01:52:43.969Z,88.86
2022-08-05T01:55:13.336Z,89.09
2022-08-05T01:58:10.895Z,88.83
2022-08-05T02:00:33.589Z,88.88
2022-08-05T02:03:16.356Z,89.19
2022-08-05T02:05:57.953Z,88.55
2022-08-05T02:08:30.781Z,88.84
2022-08-05T02:11:11.739Z,89.00
2022-08-05T02:13:53.963Z,88.68
2022-08-05T02:16:54.395Z,89.12
2022-08-05T02:19:27.364Z,88.24
2022-08-05T02:22:09.135Z,88.24
2022-08-05T02:24:51.512Z,87.93
2022-08-05T02:27:21.799Z,88.15
2022-08-05T02:30:00.901Z,88.75
2022-08-05T02:32:31.451Z,89.10
2022-08-05T02:35:13.375Z,89.33
2022-08-05T02:37:43.197Z,89.03
2022-08-05T02:40:16.961Z,88.82
2022-08-05T02:42:52.786Z,88.68
2022-08-05T02:45:24.063Z,89.33
2022-08-05T02:48:06.640Z,88.82
2022-08-05T02:50:39.287Z,88.75
2022-08-05T02:53:11.918Z,89.29
2022-08-05T02:55:59.550Z,89.08
2022-08-05T02:58:28.863Z,89.05
2022-08-05T03:01:00.774Z,88.75
2022-08-05T03:03:33.904Z,89.43
2022-08-05T03:06:54.111Z,89.99
2022-08-05T03:08:49.212Z,90.02
2022-08-05T03:11:56.454Z,89.70
2022-08-05T03:14:08.434Z,89.81
2022-08-05T03:16:35.616Z,89.23
2022-08-05T03:19:12.972Z,89.35
2022-08-05T03:21:50.071Z,90.32
2022-08-05T03:24:29.388Z,90.63
2022-08-05T03:26:56.921Z,90.84
2022-08-05T03:29:23.852Z,90.48
2022-08-05T03:31:56.638Z,90.23
2022-08-05T03:34:24.851Z,89.93
2022-08-05T03:36:53.789Z,90.41
2022-08-05T03:39:26.689Z,90.21
2022-08-05T03:41:56.384Z,89.77
2022-08-05T03:44:23.417Z,90.44
2022-08-05T03:46:49.927Z,90.56
2022-08-05T03:49:16.594Z,90.88
2022-08-05T03:52:38.511Z,90.42
2022-08-05T03:56:04.042Z,90.65
2022-08-05T03:57:53.264Z,90.16
2022-08-05T04:00:20.512Z,90.38
2022-08-05T04:02:58.323Z,91.21
2022-08-05T04:05:33.666Z,91.27
2022-08-05T04:08:03.744Z,91.63
2022-08-05T04:10:37.894Z,91.80
2022-08-05T04:13:06.487Z,92.01
2022-08-05T04:15:36.432Z,92.10
2022-08-05T04:18:06.874Z,92.66
2022-08-05T04:20:33.954Z,92.92
2022-08-05T04:23:00.331Z,92.89
2022-08-05T04:25:57.977Z,93.16
2022-08-05T04:28:13.981Z,92.66
2022-08-05T04:30:41.494Z,92.60
2022-08-05T04:33:09.387Z,92.11
2022-08-05T04:36:11.219Z,92.57
2022-08-05T04:38:22.283Z,92.99
2022-08-05T04:41:06.633Z,92.58
2022-08-05T04:43:33.967Z,92.80
2022-08-05T04:46:00.640Z,92.78
2022-08-05T04:48:28.372Z,92.47
2022-08-05T04:51:02.684Z,92.01
2022-08-05T04:53:36.435Z,91.78
2022-08-05T04:56:33.341Z,91.61
2022-08-05T04:58:52.645Z,91.32
2022-08-05T05:02:06.685Z,91.30
2022-08-05T05:04:05.517Z,91.22
2022-08-05T05:06:36.528Z,91.02
2022-08-05T05:09:17.236Z,90.74
2022-08-05T05:11:55.447Z,90.55
2022-08-05T05:14:27.798Z,90.20
2022-08-05T05:16:58.472Z,90.00
2022-08-05T05:19:27.449Z,89.91
2022-08-05T05:22:22.742Z,89.63
2022-08-05T05:24:56.302Z,89.57
2022-08-05T05:27:24.832Z,89.38
2022-08-05T05:30:09.117Z,89.21
2022-08-05T05:32:55.349Z,89.42
2022-08-05T05:35:21.693Z,89.19
2022-08-05T05:38:01.389Z,88.95
2022-08-05T05:40:32.120Z,88.82
2022-08-05T05:42:59.007Z,88.66
2022-08-05T05:45:25.651Z,88.76
2022-08-05T05:48:06.555Z,88.68
2022-08-05T05:50:41.232Z,88.26
2022-08-05T05:53:22.589Z,87.67
2022-08-05T05:55:51.620Z,87.16
2022-08-05T05:58:31.938Z,87.84
2022-08-05T06:01:12.171Z,87.66
2022-08-05T06:04:00.415Z,87.44
2022-08-05T06:06:28.110Z,87.35
2022-08-05T06:08:57.944Z,87.63
2022-08-05T06:11:24.516Z,87.26
2022-08-05T06:13:54.080Z,87.12
2022-08-05T06:16:30.696Z,87.54
2022-08-05T06:19:02.087Z,87.39
2022-08-05T06:21:37.088Z,87.12
2022-08-05T06:24:06.077Z,87.38
2022-08-05T06:26:35.144Z,86.30
2022-08-05T06:29:03.667Z,86.49
2022-08-05T06:31:33.596Z,86.00
2022-08-05T06:34:07.320Z,86.92
2022-08-05T06:36:37.514Z,84.23
2022-08-05T06:39:21.724Z,82.76
2022-08-05T06:41:49.630Z,82.55
2022-08-05T06:44:18.664Z,78.33
2022-08-05T06:46:50.792Z,78.23
2022-08-05T06:49:18.834Z,77.41
2022-08-05T06:51:48.154Z,76.73
2022-08-05T06:54:19.041Z,75.62
2022-08-05T06:56:54.768Z,75.02
2022-08-05T06:59:38.801Z,75.25
2022-08-05T07:02:08.889Z,75.52
2022-08-05T07:04:35.397Z,74.40
2022-08-05T07:07:03.467Z,73.53
2022-08-05T07:09:37.349Z,75.16
2022-08-05T07:12:07.575Z,75.69
2022-08-05T07:14:34.689Z,73.42
2022-08-05T07:17:59.179Z,73.20
2022-08-05T07:22:35.556Z,75.13
2022-08-05T07:25:23.147Z,73.86
2022-08-05T07:27:57.742Z,73.05
2022-08-05T07:30:32.549Z,73.68
2022-08-05T07:33:05.189Z,73.29
2022-08-05T07:36:02.517Z,72.86
2022-08-05T07:38:32.533Z,72.98
2022-08-05T07:42:08.073Z,72.52
2022-08-05T07:43:57.980Z,71.31
2022-08-05T07:46:30.621Z,70.69
2022-08-05T07:49:03.978Z,70.40
2022-08-05T07:51:48.615Z,68.51
2022-08-05T07:54:21.952Z,66.84
2022-08-05T07:57:13.560Z,65.90
2022-08-05T07:59:40.305Z,64.21
2022-08-05T08:02:17.048Z,65.30
2022-08-05T08:04:48.727Z,63.51
2022-08-05T08:07:16.085Z,62.92
2022-08-05T08:09:44.861Z,62.71
2022-08-05T08:12:35.396Z,62.01
2022-08-05T08:15:02.639Z,64.83
2022-08-05T08:17:30.896Z,56.03
2022-08-05T08:20:43.558Z,51.36
2022-08-05T08:22:43.820Z,54.39
2022-08-05T08:25:16.513Z,53.10
2022-08-05T08:27:45.085Z,49.21
2022-08-05T08:30:29.782Z,51.88
2022-08-05T08:33:02.408Z,48.17
2022-08-05T08:35:34.799Z,46.03
2022-08-05T08:38:07.113Z,43.95
2022-08-05T08:40:35.180Z,42.89
2022-08-05T08:45:04.486Z,40.58
2022-08-05T08:45:52.541Z,43.40
2022-08-05T08:48:36.075Z,39.81
2022-08-05T08:52:02.232Z,38.52
2022-08-05T08:53:54.228Z,41.43
2022-08-05T08:56:22.109Z,42.15
2022-08-05T08:58:49.553Z,38.08
2022-08-05T09:01:18.877Z,39.61
2022-08-05T09:03:54.306Z,42.17
2022-08-05T09:06:24.262Z,41.17
2022-08-05T09:08:56.352Z,42.97
2022-08-05T09:11:52.649Z,43.40
2022-08-05T09:14:57.028Z,41.76
2022-08-05T09:16:59.877Z,41.87
2022-08-05T09:19:27.723Z,42.74
2022-08-05T09:22:23.519Z,41.26
2022-08-05T09:24:41.190Z,41.56
2022-08-05T09:27:09.330Z,43.48
2022-08-05T09:29:44.806Z,41.11
2022-08-05T09:32:51.332Z,42.48
2022-08-05T09:35:09.981Z,42.78
2022-08-05T09:38:16.163Z,44.21
2022-08-05T09:40:37.953Z,46.92
2022-08-05T09:43:05.754Z,47.17
2022-08-05T09:46:06.084Z,44.44
2022-08-05T09:48:32.281Z,40.91
2022-08-05T09:51:04.127Z,40.85
2022-08-05T09:53:54.432Z,44.73
2022-08-05T09:56:30.569Z,38.74
2022-08-05T09:58:57.983Z,37.42
2022-08-05T10:01:32.131Z,36.90
2022-08-05T10:04:10.971Z,35.03
2022-08-05T10:06:54.890Z,34.98
2022-08-05T10:09:29.598Z,36.79
2022-08-05T10:12:18.483Z,34.56
2022-08-05T10:15:13.818Z,33.26
2022-08-05T10:17:47.442Z,32.62
2022-08-05T10:20:23.812Z,33.49
2022-08-05T10:22:52.917Z,33.73
2022-08-05T10:25:19.844Z,33.43
2022-08-05T10:28:13.910Z,34.59
2022-08-05T10:32:46.895Z,34.83
2022-08-05T10:33:25.051Z,34.08
2022-08-05T10:35:59.775Z,33.95
2022-08-05T10:38:28.717Z,34.14
2022-08-05T10:41:13.835Z,32.92
2022-08-05T10:44:04.733Z,31.84
2022-08-05T10:46:50.983Z,32.62
2022-08-05T10:49:27.497Z,34.79
2022-08-05T10:52:02.487Z,35.10
2022-08-05T10:54:56.122Z,35.70
2022-08-05T10:57:29.403Z,32.12
2022-08-05T11:00:18.186Z,30.13
2022-08-05T11:03:23.831Z,33.18
2022-08-05T11:06:14.967Z,32.33
2022-08-05T11:09:10.642Z,30.51
2022-08-05T11:11:44.453Z,30.43
2022-08-05T11:15:01.201Z,30.93
2022-08-05T11:18:00.485Z,33.91
2022-08-05T11:20:32.090Z,33.95
2022-08-05T11:23:05.729Z,30.85
2022-08-05T11:26:04.789Z,29.61
2022-08-05T11:28:21.928Z,32.36
2022-08-05T11:30:55.373Z,34.28
2022-08-05T11:33:43.908Z,31.05
2022-08-05T11:36:34.406Z,32.14
2022-08-05T11:39:08.849Z,31.12
2022-08-05T11:42:01.310Z,28.56
2022-08-05T11:44:53.174Z,29.69
2022-08-05T11:47:15.182Z,32.39
2022-08-05T11:49:58.248Z,33.68
2022-08-05T11:52:29.746Z,33.50
2022-08-05T11:54:58.612Z,33.41
2022-08-05T11:58:08.436Z,31.90
2022-08-05T12:00:29.188Z,32.49
2022-08-05T12:02:57.025Z,35.03
2022-08-05T12:05:36.074Z,33.78
2022-08-05T12:08:10.331Z,35.04
2022-08-05T12:10:45.490Z,36.29
2022-08-05T12:13:16.589Z,37.16
2022-08-05T12:15:45.262Z,38.62
2022-08-05T12:18:32.878Z,40.16
2022-08-05T12:21:10.427Z,39.76
2022-08-05T12:23:36.968Z,38.84
2022-08-05T12:26:09.685Z,39.75
2022-08-05T12:28:37.931Z,40.26
2022-08-05T12:31:05.208Z,40.95
2022-08-05T12:33:36.367Z,40.33
2022-08-05T12:36:08.220Z,39.96
2022-08-05T12:38:37.993Z,40.92
2022-08-05T12:41:13.322Z,40.89
2022-08-05T12:43:58.595Z,41.03
2022-08-05T12:46:29.753Z,40.68
2022-08-05T12:49:13.140Z,42.10
2022-08-05T12:52:13.514Z,42.25
2022-08-05T12:54:33.079Z,44.60
2022-08-05T12:57:01.415Z,43.85
2022-08-05T13:00:08.330Z,44.05
2022-08-05T13:04:54.333Z,45.52
2022-08-05T13:07:57.772Z,45.14
2022-08-05T13:10:15.011Z,44.23
2022-08-05T13:12:51.077Z,43.68
2022-08-05T13:15:42.076Z,43.71
2022-08-05T13:18:19.857Z,40.96
2022-08-05T13:20:47.489Z,41.56
2022-08-05T13:23:16.379Z,41.26
2022-08-05T13:25:52.267Z,40.71
2022-08-05T13:28:26.901Z,42.14
2022-08-05T13:30:53.603Z,41.79
2022-08-05T13:34:22.727Z,40.05
2022-08-05T13:36:09.289Z,38.88
2022-08-05T13:41:05.858Z,42.08
2022-08-05T13:43:44.046Z,41.85
2022-08-05T13:46:30.830Z,41.57
2022-08-05T13:49:09.792Z,42.21
2022-08-05T13:51:40.932Z,42.48
2022-08-05T13:54:12.387Z,43.74
2022-08-05T13:56:45.114Z,42.98
2022-08-05T13:59:20.371Z,44.01
2022-08-05T14:01:58.284Z,43.93
2022-08-05T14:04:43.725Z,44.30
2022-08-05T14:07:25.668Z,44.68
2022-08-05T14:10:03.830Z,44.71
2022-08-05T14:12:32.716Z,45.99
2022-08-05T14:14:59.490Z,43.83
2022-08-05T14:17:25.851Z,45.40
2022-08-05T14:19:56.890Z,45.92
2022-08-05T14:22:30.385Z,45.16
2022-08-05T14:24:57.049Z,44.43
2022-08-05T14:27:24.078Z,43.00
2022-08-05T14:29:54.803Z,43.13
2022-08-05T14:32:26.926Z,43.69
2022-08-05T14:34:53.984Z,44.66
2022-08-05T14:37:23.649Z,44.55
2022-08-05T14:40:10.514Z,43.99
2022-08-05T14:42:44.146Z,41.40
2022-08-05T14:45:10.732Z,42.03
2022-08-05T14:48:05.188Z,44.92
2022-08-05T14:50:25.270Z,44.04
2022-08-05T14:52:56.889Z,44.93
2022-08-05T14:55:26.205Z,43.73
2022-08-05T14:58:11.772Z,44.44
2022-08-05T15:00:59.508Z,43.71
2022-08-05T15:03:33.162Z,39.66
2022-08-05T15:06:07.455Z,41.71
2022-08-05T15:08:59.431Z,43.93
2022-08-05T15:11:51.006Z,46.67
2022-08-05T15:14:33.158Z,47.62
2022-08-05T15:16:59.302Z,47.99
2022-08-05T15:19:26.035Z,49.59
2022-08-05T15:21:52.517Z,50.11
2022-08-05T15:24:18.881Z,50.27
2022-08-05T15:26:46.350Z,49.99
2022-08-05T15:29:15.285Z,50.04
2022-08-05T15:31:41.666Z,50.31
2022-08-05T15:34:31.292Z,51.28
2022-08-05T15:36:54.377Z,52.21
2022-08-05T15:40:58.278Z,52.04
2022-08-05T15:42:55.103Z,52.13
2022-08-05T15:44:53.753Z,52.37
2022-08-05T15:47:23.623Z,52.17
2022-08-05T15:49:56.628Z,51.57
2022-08-05T15:52:51.599Z,52.25
2022-08-05T15:55:15.526Z,52.62
2022-08-05T15:57:43.233Z,51.98
2022-08-05T16:00:12.535Z,52.96
2022-08-05T16:02:43.459Z,52.11
2022-08-05T16:05:11.278Z,52.27
2022-08-05T16:07:37.718Z,53.60
2022-08-05T16:10:04.882Z,52.85
2022-08-05T16:12:36.097Z,52.21
2022-08-05T16:15:04.452Z,52.41
2022-08-05T16:17:31.378Z,52.38
2022-08-05T16:20:04.391Z,51.58
2022-08-05T16:22:37.856Z,50.62
2022-08-05T16:25:05.350Z,49.96
2022-08-05T16:27:59.879Z,50.15
2022-08-05T16:30:26.735Z,50.08
2022-08-05T16:32:55.597Z,51.17
2022-08-05T16:35:28.260Z,51.96
2022-08-05T16:38:15.212Z,51.89
2022-08-05T16:40:48.044Z,52.64
2022-08-05T16:43:22.053Z,53.53
2022-08-05T16:46:05.233Z,52.85
2022-08-05T16:48:37.912Z,53.06
2022-08-05T16:51:09.966Z,53.55
2022-08-05T16:54:06.140Z,52.02
2022-08-05T16:56:30.513Z,50.38
2022-08-05T16:58:58.227Z,50.60
2022-08-05T17:01:25.399Z,49.30
2022-08-05T17:03:52.145Z,48.93
2022-08-05T17:06:19.150Z,48.21
2022-08-05T17:08:52.688Z,47.77
2022-08-05T17:11:25.320Z,46.67
2022-08-05T17:14:00.237Z,47.59
2022-08-05T17:16:36.423Z,46.57
2022-08-05T17:19:03.661Z,46.63
2022-08-05T17:21:35.957Z,46.66
2022-08-05T17:24:27.978Z,47.19
2022-08-05T17:26:54.017Z,48.18
2022-08-05T17:29:22.440Z,47.42
2022-08-05T17:31:59.452Z,48.04
2022-08-05T17:34:29.462Z,48.27
2022-08-05T17:36:55.992Z,47.89
2022-08-05T17:39:24.305Z,48.68
2022-08-05T17:42:19.890Z,47.35
2022-08-05T17:44:42.446Z,48.25
2022-08-05T17:47:17.033Z,46.89
2022-08-05T17:50:00.117Z,48.09
2022-08-05T17:52:34.265Z,48.63
2022-08-05T17:55:03.087Z,49.81
2022-08-05T17:57:29.600Z,49.99
2022-08-05T18:00:05.418Z,51.50
2022-08-05T18:02:35.689Z,51.90
2022-08-05T18:05:06.998Z,51.90
2022-08-05T18:07:41.131Z,52.08
2022-08-05T18:10:10.974Z,52.72
2022-08-05T18:12:37.913Z,53.20
2022-08-05T18:15:05.013Z,53.65
2022-08-05T18:17:58.633Z,54.18
2022-08-05T18:20:18.480Z,54.45
2022-08-05T18:22:53.856Z,54.28
2022-08-05T18:25:21.220Z,54.62
2022-08-05T18:27:52.563Z,54.15
2022-08-05T18:30:19.421Z,54.55
2022-08-05T18:32:53.550Z,55.08
2022-08-05T18:35:49.302Z,55.41
2022-08-05T18:38:13.589Z,55.04
2022-08-05T18:41:57.176Z,54.42
2022-08-05T18:43:31.612Z,53.61
2022-08-05T18:46:05.205Z,54.06
2022-08-05T18:48:33.341Z,53.15
2022-08-05T18:51:01.566Z,53.86
2022-08-05T18:53:50.134Z,54.43
2022-08-05T18:56:16.989Z,54.53
2022-08-05T18:58:48.222Z,54.58
2022-08-05T19:01:17.978Z,54.27
2022-08-05T19:03:55.056Z,54.47
2022-08-05T19:06:34.105Z,54.25
2022-08-05T19:09:04.072Z,55.06
2022-08-05T19:11:37.075Z,55.38
2022-08-05T19:14:44.657Z,55.40
2022-08-05T19:17:03.454Z,56.11
2022-08-05T19:19:32.857Z,56.15
2022-08-05T19:22:00.733Z,56.65
2022-08-05T19:24:34.054Z,56.44
2022-08-05T19:27:03.950Z,56.85
2022-08-05T19:29:35.974Z,56.97
2022-08-05T19:32:11.114Z,57.43
2022-08-05T19:34:38.467Z,57.36
2022-08-05T19:37:05.024Z,57.77
2022-08-05T19:39:31.955Z,58.36
2022-08-05T19:42:15.143Z,58.64
2022-08-05T19:44:45.223Z,59.07
2022-08-05T19:47:15.218Z,59.14
2022-08-05T19:49:42.950Z,59.98
2022-08-05T19:52:31.043Z,60.78
2022-08-05T19:54:57.887Z,61.16
2022-08-05T19:57:47.658Z,61.66
2022-08-05T20:00:13.642Z,62.37
2022-08-05T20:02:39.981Z,63.13
2022-08-05T20:05:09.643Z,63.61
2022-08-05T20:07:48.701Z,64.15
2022-08-05T20:10:17.220Z,64.58
2022-08-05T20:12:48.206Z,64.99
2022-08-05T20:15:48.561Z,65.69
2022-08-05T20:18:03.470Z,65.64
2022-08-05T20:20:30.141Z,66.53
2022-08-05T20:22:56.477Z,66.99
2022-08-05T20:25:24.804Z,67.73
2022-08-05T20:28:00.234Z,68.16
2022-08-05T20:30:27.852Z,68.04
2022-08-05T20:32:54.196Z,68.53
2022-08-05T20:35:20.575Z,68.48
2022-08-05T20:38:05.399Z,69.32
2022-08-05T20:40:33.308Z,69.74
2022-08-05T20:43:00.213Z,69.99
2022-08-05T20:45:56.061Z,69.96
2022-08-05T20:48:13.097Z,69.95
2022-08-05T20:50:45.551Z,70.39
2022-08-05T20:53:16.204Z,70.44
2022-08-05T20:56:08.708Z,71.46
2022-08-05T20:58:35.900Z,71.42
2022-08-05T21:01:04.118Z,72.21
2022-08-05T21:03:30.696Z,71.74
2022-08-05T21:06:01.519Z,71.43
2022-08-05T21:08:41.420Z,71.32
2022-08-05T21:11:51.634Z,71.66
2022-08-05T21:13:59.158Z,73.28
2022-08-05T21:16:30.184Z,73.25
2022-08-05T21:19:00.303Z,73.21
2022-08-05T21:21:39.805Z,73.61
2022-08-05T21:24:12.728Z,73.56
2022-08-05T21:26:40.189Z,74.51
2022-08-05T21:29:07.918Z,74.80
2022-08-05T21:31:41.110Z,75.08
2022-08-05T21:34:08.382Z,75.23
2022-08-05T21:36:37.191Z,74.51
2022-08-05T21:39:03.701Z,74.99
2022-08-05T21:41:33.082Z,75.66
2022-08-05T21:44:03.422Z,75.45
2022-08-05T21:46:32.420Z,75.45
2022-08-05T21:49:01.287Z,76.00
2022-08-05T21:52:16.061Z,75.88
2022-08-05T21:54:13.963Z,76.22
2022-08-05T21:56:44.708Z,76.37
2022-08-05T21:59:24.097Z,76.46
2022-08-05T22:01:54.577Z,76.92
2022-08-05T22:04:25.332Z,77.91
2022-08-05T22:06:52.328Z,77.52
2022-08-05T22:09:21.715Z,78.02
2022-08-05T22:11:48.804Z,78.02
2022-08-05T22:14:35.065Z,79.28
2022-08-05T22:17:05.238Z,78.39
2022-08-05T22:20:03.576Z,78.34
2022-08-05T22:22:26.955Z,78.19
2022-08-05T22:24:55.833Z,78.11
2022-08-05T22:27:22.612Z,78.19
2022-08-05T22:29:49.103Z,79.43
2022-08-05T22:32:20.662Z,79.15
2022-08-05T22:34:49.358Z,78.84
2022-08-05T22:37:15.845Z,78.63
2022-08-05T22:39:42.249Z,79.14
2022-08-05T22:42:15.334Z,78.96
2022-08-05T22:44:48.238Z,79.29
2022-08-05T22:47:28.915Z,80.74
2022-08-05T22:50:20.521Z,79.28
2022-08-05T22:52:42.844Z,79.53
2022-08-05T22:55:19.538Z,79.59
2022-08-05T22:57:46.949Z,79.78
2022-08-05T23:00:17.965Z,79.95
2022-08-05T23:02:47.416Z,79.78
2022-08-05T23:05:18.279Z,79.65
2022-08-05T23:07:48.558Z,79.89
2022-08-05T23:10:19.507Z,80.23
2022-08-05T23:12:47.085Z,81.04
2022-08-05T23:15:13.439Z,81.24
2022-08-05T23:18:00.903Z,81.39
2022-08-05T23:20:26.133Z,81.31
2022-08-05T23:22:56.110Z,81.76
2022-08-05T23:25:54.668Z,81.88
2022-08-05T23:28:10.649Z,82.91
2022-08-05T23:30:40.314Z,82.30
2022-08-05T23:33:15.990Z,81.76
2022-08-05T23:35:45.417Z,82.36
2022-08-05T23:38:12.078Z,81.97
2022-08-05T23:40:38.580Z,82.27
2022-08-05T23:43:11.501Z,82.19
2022-08-05T23:45:51.306Z,82.06
2022-08-05T23:48:17.633Z,83.65
2022-08-05T23:50:46.106Z,82.68
2022-08-05T23:53:22.741Z,82.86
2022-08-05T23:55:49.696Z,84.60
2022-08-05T23:58:32.053Z,82.92
